Akron, Pennsylvania
Current Conditions -  °F | °C
As of 2:53 AM on Thursday 23 Oct 2014 (Local Time) from KLNS Reporting Station
Light Rain Light Rain  
Wind Chill: 51°   Ceiling: 2800
Heat Index: 51°   Visibility: 10mi
Dew Point: 43°   Wind: 12mph
Humidity: 74%   Direction: 350°N
Pressure: 29.85"   Gusts: 22mph
Location:  40.16°N, 76.2°W
Report Text: KLNS 230653Z AUTO 35010G19KT 10SM -RA BKN028 OVC050 11/06 A2985 RMK AO2 RAE03B47 SLP110 P0000 T01060061
Loading
Personal Weather Stations






























Interactive Weather Map New forecast layout! Learn more

10-Day Weather Forecast

Advertisements
Track Severe Weather on mobile